Time;durP1;ratioP1;P1;durP2;ratioP2;P2;SDS_P1;SDS_P2;PMS_P1;PMS_P2;Temp;Humidity;BMP_temperature;BMP_pressure;BME280_temperature;BME280_humidity;BME280_pressure;Samples;Min_cycle;Max_cycle;Signal;HPM_P1;HPM_P2
2022/12/27 00:03:47;;;;;;;2.45;1.30;;;;;;;;;;12978915;22;20023;-84
2022/12/27 00:08:51;;;;;;;1.20;1.10;;;;;;;;;;12977604;22;20077;-84
2022/12/27 00:13:55;;;;;;;2.88;1.13;;;;;;;;;;12982301;22;20281;-89
2022/12/27 00:19:01;;;;;;;2.67;1.05;;;;;;;;;;13008661;22;20548;-86
2022/12/27 00:24:05;;;;;;;1.27;0.70;;;;;;;;;;13038555;22;20530;-86
2022/12/27 00:29:09;;;;;;;2.85;1.38;;;;;;;;;;13008433;22;20043;-88
2022/12/27 00:34:14;;;;;;;3.67;1.10;;;;;;;;;;13002626;22;20023;-90
2022/12/27 00:39:18;;;;;;;2.00;0.80;;;;;;;;;;13002719;22;20023;-90
2022/12/27 00:44:21;;;;;;;4.15;1.17;;;;;;;;;;13034871;22;20094;-85
2022/12/27 00:49:26;;;;;;;2.67;1.00;;;;;;;;;;13006720;22;20102;-86
2022/12/27 00:54:30;;;;;;;1.90;0.80;;;;;;;;;;13038676;22;20371;-87
2022/12/27 00:59:33;;;;;;;3.10;1.00;;;;;;;;;;12995722;22;20098;-83
2022/12/27 01:04:38;;;;;;;0.77;0.47;;;;;;;;;;12979595;22;20595;-83
2022/12/27 01:09:41;;;;;;;2.17;0.82;;;;;;;;;;12980254;22;20038;-83
2022/12/27 01:14:45;;;;;;;1.77;0.60;;;;;;;;;;12989680;22;20029;-87
2022/12/27 01:19:50;;;;;;;4.53;1.25;;;;;;;;;;13028408;22;20035;-87
2022/12/27 01:24:53;;;;;;;3.40;1.17;;;;;;;;;;12984793;22;20015;-84
2022/12/27 01:29:58;;;;;;;3.28;1.17;;;;;;;;;;12988966;22;20102;-86
2022/12/27 01:35:04;;;;;;;4.18;1.58;;;;;;;;;;12997325;22;20450;-83
2022/12/27 01:40:08;;;;;;;3.10;1.50;;;;;;;;;;12976925;22;20327;-83
2022/12/27 01:45:15;;;;;;;6.40;1.45;;;;;;;;;;12984129;22;20070;-86
2022/12/27 01:50:25;;;;;;;5.60;1.58;;;;;;;;;;13011518;22;20615;-91
2022/12/27 01:55:33;;;;;;;2.83;1.13;;;;;;;;;;13014057;22;20023;-83
2022/12/27 02:00:37;;;;;;;2.55;1.15;;;;;;;;;;12980545;22;20337;-83
2022/12/27 02:05:43;;;;;;;3.63;1.42;;;;;;;;;;12979345;22;20571;-84
2022/12/27 02:10:46;;;;;;;3.88;1.15;;;;;;;;;;12980473;22;20024;-83
2022/12/27 02:15:50;;;;;;;4.47;1.63;;;;;;;;;;13025951;22;20221;-84
2022/12/27 02:21:11;;;;;;;3.42;1.60;;;;;;;;;;12978642;22;20647;-83
2022/12/27 02:26:44;;;;;;;4.50;1.23;;;;;;;;;;12991340;22;20023;-86
2022/12/27 02:31:59;;;;;;;3.15;1.15;;;;;;;;;;13017612;22;20023;-89
2022/12/27 02:37:09;;;;;;;5.80;1.00;;;;;;;;;;12971555;22;20020;-84
2022/12/27 02:53:07;;;;;;;0.93;0.70;;;;;;;;;;12980122;22;20044;-84
2022/12/27 02:58:25;;;;;;;1.42;0.70;;;;;;;;;;12977114;22;20030;-83
2022/12/27 03:03:43;;;;;;;1.25;0.50;;;;;;;;;;12979544;22;20015;-84
2022/12/27 03:08:57;;;;;;;1.63;0.60;;;;;;;;;;12978218;22;20072;-84
2022/12/27 03:35:41;;;;;;;2.03;0.90;;;;;;;;;;12927463;22;20019;-84
2022/12/27 03:46:37;;;;;;;2.00;0.50;;;;;;;;;;12976788;22;20025;-84
2022/12/27 03:51:47;;;;;;;0.85;0.50;;;;;;;;;;12977631;22;20023;-84
2022/12/27 03:56:50;;;;;;;3.63;0.70;;;;;;;;;;13010017;22;20030;-88
2022/12/27 04:01:54;;;;;;;1.52;0.70;;;;;;;;;;13016326;22;20488;-86
2022/12/27 04:07:00;;;;;;;2.60;0.60;;;;;;;;;;13016416;22;20410;-86
2022/12/27 04:38:50;;;;;;;3.65;1.50;;;;;;;;;;13002173;22;20034;-86
2022/12/27 04:54:57;;;;;;;4.45;1.77;;;;;;;;;;12976131;22;20023;-85
2022/12/27 05:05:22;;;;;;;3.30;1.50;;;;;;;;;;12978834;22;20202;-84
2022/12/27 05:15:49;;;;;;;4.20;1.70;;;;;;;;;;12979721;22;20015;-85
2022/12/27 05:20:53;;;;;;;3.05;1.30;;;;;;;;;;13002186;22;20456;-84
2022/12/27 05:25:57;;;;;;;7.45;1.70;;;;;;;;;;13022242;22;20126;-85
2022/12/27 05:31:02;;;;;;;5.35;2.28;;;;;;;;;;12981252;22;20345;-84
2022/12/27 05:36:09;;;;;;;5.18;1.80;;;;;;;;;;12980949;22;20031;-84
2022/12/27 05:41:14;;;;;;;6.55;1.92;;;;;;;;;;13001130;22;20342;-86
2022/12/27 05:46:19;;;;;;;4.90;2.00;;;;;;;;;;13027107;22;20368;-88
2022/12/27 05:51:23;;;;;;;8.68;1.95;;;;;;;;;;13003013;22;20023;-86
2022/12/27 05:56:28;;;;;;;4.57;1.83;;;;;;;;;;13030235;22;20610;-91
2022/12/27 06:01:34;;;;;;;5.07;2.30;;;;;;;;;;13011784;22;20307;-84
2022/12/27 06:06:38;;;;;;;8.77;2.22;;;;;;;;;;12993887;22;20294;-86
2022/12/27 06:11:45;;;;;;;4.32;2.00;;;;;;;;;;12999749;22;20648;-85
2022/12/27 06:16:49;;;;;;;5.85;2.40;;;;;;;;;;12987969;22;20047;-85
2022/12/27 06:21:52;;;;;;;4.72;1.90;;;;;;;;;;12997848;22;20027;-86
2022/12/27 06:26:57;;;;;;;4.25;2.38;;;;;;;;;;12993219;22;20113;-84
2022/12/27 06:32:01;;;;;;;6.00;2.50;;;;;;;;;;12980253;22;20110;-83
2022/12/27 06:37:04;;;;;;;2.88;1.52;;;;;;;;;;12982780;22;20019;-83
2022/12/27 06:42:09;;;;;;;4.13;1.98;;;;;;;;;;12979634;22;20400;-83
2022/12/27 06:47:13;;;;;;;2.13;1.30;;;;;;;;;;13034527;22;20714;-91
2022/12/27 06:52:16;;;;;;;2.33;1.08;;;;;;;;;;13018988;22;20031;-86
2022/12/27 06:57:21;;;;;;;4.78;1.52;;;;;;;;;;13046389;22;20244;-85
2022/12/27 07:02:24;;;;;;;2.88;1.25;;;;;;;;;;13025324;22;20023;-85
2022/12/27 07:07:28;;;;;;;1.77;1.17;;;;;;;;;;13065598;22;20045;-88
2022/12/27 07:12:33;;;;;;;4.30;1.27;;;;;;;;;;13027878;22;20027;-85
2022/12/27 07:17:39;;;;;;;3.40;1.38;;;;;;;;;;13019389;22;20031;-88
2022/12/27 07:22:43;;;;;;;2.10;1.00;;;;;;;;;;13016847;22;20049;-86
2022/12/27 07:27:48;;;;;;;2.85;1.20;;;;;;;;;;13016492;22;20053;-88
2022/12/27 07:32:52;;;;;;;5.25;1.42;;;;;;;;;;13016170;22;20101;-87
2022/12/27 07:37:55;;;;;;;4.18;1.58;;;;;;;;;;12986511;22;20389;-83
2022/12/27 07:43:00;;;;;;;1.80;0.90;;;;;;;;;;12999362;22;20027;-89
2022/12/27 07:48:04;;;;;;;2.95;1.08;;;;;;;;;;13052632;22;20029;-89
2022/12/27 07:53:08;;;;;;;3.60;1.38;;;;;;;;;;13018694;22;20529;-88
2022/12/27 07:58:13;;;;;;;5.15;1.83;;;;;;;;;;13018122;22;20043;-86
2022/12/27 08:03:20;;;;;;;6.13;1.70;;;;;;;;;;13017690;22;20023;-87
2022/12/27 08:08:27;;;;;;;5.20;1.73;;;;;;;;;;13022153;22;20027;-84
2022/12/27 08:13:38;;;;;;;9.35;2.15;;;;;;;;;;13003168;22;20019;-86
2022/12/27 08:18:42;;;;;;;2.78;1.48;;;;;;;;;;13044805;22;20027;-88
2022/12/27 08:23:46;;;;;;;6.20;2.10;;;;;;;;;;13016146;22;20027;-87
2022/12/27 08:28:51;;;;;;;6.82;2.42;;;;;;;;;;13009734;22;20098;-86
2022/12/27 08:33:56;;;;;;;7.00;1.90;;;;;;;;;;13028530;22;20475;-87
2022/12/27 08:39:09;;;;;;;6.40;1.60;;;;;;;;;;12990921;22;20019;-85
2022/12/27 08:44:14;;;;;;;1.58;1.00;;;;;;;;;;12985412;22;20030;-90
2022/12/27 08:49:17;;;;;;;2.15;0.90;;;;;;;;;;13018216;22;20364;-89
2022/12/27 08:54:24;;;;;;;1.77;1.08;;;;;;;;;;13015232;22;20062;-91
2022/12/27 08:59:32;;;;;;;2.47;1.25;;;;;;;;;;13012546;22;20407;-88
2022/12/27 09:04:36;;;;;;;3.78;1.80;;;;;;;;;;13016872;22;20023;-90
2022/12/27 09:09:39;;;;;;;1.70;1.15;;;;;;;;;;12992650;22;20476;-85
2022/12/27 09:14:44;;;;;;;2.78;1.65;;;;;;;;;;12989942;22;20356;-91
2022/12/27 09:19:48;;;;;;;1.73;1.17;;;;;;;;;;12994112;22;20537;-89
2022/12/27 09:24:51;;;;;;;5.22;1.92;;;;;;;;;;12998363;22;20023;-89
2022/12/27 09:29:56;;;;;;;4.40;1.83;;;;;;;;;;12999660;22;20098;-91
2022/12/27 09:35:00;;;;;;;4.85;2.10;;;;;;;;;;13038548;22;20027;-89
2022/12/27 09:40:07;;;;;;;2.78;1.63;;;;;;;;;;13059239;22;20340;-85
2022/12/27 09:45:17;;;;;;;7.40;2.22;;;;;;;;;;13028174;22;20038;-85
2022/12/27 09:50:27;;;;;;;2.67;1.15;;;;;;;;;;12982959;22;20046;-85
2022/12/27 09:55:38;;;;;;;5.90;1.70;;;;;;;;;;13011711;22;20043;-85
2022/12/27 10:00:44;;;;;;;2.55;1.38;;;;;;;;;;13016046;22;20023;-88
2022/12/27 10:05:49;;;;;;;;;;;;;;;;;;13050903;22;20026;-85
2022/12/27 10:11:03;;;;;;;2.95;1.42;;;;;;;;;;13022874;22;19915;-85
2022/12/27 10:21:54;;;;;;;3.53;1.55;;;;;;;;;;12998694;22;20024;-83
2022/12/27 10:26:57;;;;;;;5.00;1.80;;;;;;;;;;13009706;22;20038;-83
2022/12/27 10:32:01;;;;;;;2.10;1.27;;;;;;;;;;13051724;22;20054;-83
2022/12/27 10:37:06;;;;;;;6.10;2.30;;;;;;;;;;13010965;22;20019;-83
2022/12/27 10:42:18;;;;;;;3.58;1.52;;;;;;;;;;13019191;22;20525;-83
2022/12/27 10:47:26;;;;;;;2.33;1.70;;;;;;;;;;13010989;22;20098;-84
2022/12/27 10:52:34;;;;;;;4.10;1.63;;;;;;;;;;13041239;22;20069;-84
2022/12/27 10:57:38;;;;;;;4.78;1.83;;;;;;;;;;13040724;22;20027;-84
2022/12/27 11:02:50;;;;;;;4.28;2.05;;;;;;;;;;13017528;22;20199;-83
2022/12/27 11:07:56;;;;;;;4.07;1.98;;;;;;;;;;13017551;22;20034;-80
2022/12/27 11:13:02;;;;;;;6.35;2.08;;;;;;;;;;13062074;22;20030;-82
2022/12/27 11:18:11;;;;;;;5.00;2.03;;;;;;;;;;12990177;22;20039;-84
2022/12/27 11:23:18;;;;;;;6.60;2.40;;;;;;;;;;13027763;22;20053;-88
2022/12/27 11:28:29;;;;;;;8.05;2.15;;;;;;;;;;12996023;22;20034;-87
2022/12/27 11:33:38;;;;;;;8.93;3.08;;;;;;;;;;13007207;22;20104;-86
2022/12/27 11:38:47;;;;;;;4.97;1.60;;;;;;;;;;13006608;22;20081;-86
2022/12/27 11:43:58;;;;;;;6.47;1.90;;;;;;;;;;13027215;22;20042;-86
2022/12/27 11:49:04;;;;;;;3.88;1.50;;;;;;;;;;12996954;22;20027;-85
2022/12/27 11:54:22;;;;;;;6.13;1.52;;;;;;;;;;13018296;22;20090;-85
2022/12/27 11:59:50;;;;;;;3.53;1.83;;;;;;;;;;13025196;22;20356;-84
2022/12/27 12:05:05;;;;;;;4.40;1.83;;;;;;;;;;12985036;22;20073;-84
2022/12/27 12:10:24;;;;;;;3.72;1.38;;;;;;;;;;12989386;22;20029;-84
2022/12/27 12:15:57;;;;;;;2.75;1.40;;;;;;;;;;12970505;22;20169;-84
2022/12/27 12:21:23;;;;;;;2.17;1.00;;;;;;;;;;12998891;22;20027;-83
2022/12/27 12:26:32;;;;;;;;;;;;;;;;;;12997889;22;20027;-84
2022/12/27 12:31:50;;;;;;;5.68;1.83;;;;;;;;;;12992462;22;20291;-83
2022/12/27 12:37:09;;;;;;;2.78;1.13;;;;;;;;;;12992562;22;20019;-87
2022/12/27 12:42:20;;;;;;;5.22;1.42;;;;;;;;;;12986084;22;20091;-87
2022/12/27 12:47:45;;;;;;;3.92;1.40;;;;;;;;;;12986666;22;20125;-83
2022/12/27 12:53:26;;;;;;;2.07;1.20;;;;;;;;;;12984052;22;20511;-83
2022/12/27 12:58:49;;;;;;;3.63;1.25;;;;;;;;;;12976654;22;20027;-86
2022/12/27 13:04:10;;;;;;;3.80;1.40;;;;;;;;;;12988133;22;20023;-87
2022/12/27 13:09:23;;;;;;;1.33;0.73;;;;;;;;;;12986263;22;20276;-86
2022/12/27 13:14:55;;;;;;;1.73;0.80;;;;;;;;;;12985671;22;20485;-84
2022/12/27 13:20:14;;;;;;;2.22;1.17;;;;;;;;;;12984959;22;20023;-84
2022/12/27 13:25:28;;;;;;;3.97;1.55;;;;;;;;;;13011293;22;20023;-83
2022/12/27 13:30:42;;;;;;;3.38;0.75;;;;;;;;;;13012028;22;20019;-83
2022/12/27 13:35:59;;;;;;;2.45;0.77;;;;;;;;;;12986624;22;20473;-83
2022/12/27 13:41:21;;;;;;;1.80;0.70;;;;;;;;;;12986096;22;20023;-83
2022/12/27 13:46:49;;;;;;;0.95;0.57;;;;;;;;;;13015161;22;20049;-88
2022/12/27 13:52:00;;;;;;;1.98;0.70;;;;;;;;;;12994029;22;20421;-88
2022/12/27 13:57:22;;;;;;;1.17;0.70;;;;;;;;;;12994430;22;20030;-83
2022/12/27 14:02:57;;;;;;;1.85;0.80;;;;;;;;;;12994436;22;20046;-85
2022/12/27 14:08:10;;;;;;;1.83;1.17;;;;;;;;;;12992229;22;20073;-87
2022/12/27 14:13:22;;;;;;;2.67;1.13;;;;;;;;;;12993150;22;20027;-86
2022/12/27 14:18:41;;;;;;;1.75;0.90;;;;;;;;;;12993352;22;20015;-86
2022/12/27 14:24:00;;;;;;;3.22;1.10;;;;;;;;;;13036690;22;20068;-84
2022/12/27 14:29:44;;;;;;;2.72;0.90;;;;;;;;;;13001380;22;20464;-83
2022/12/27 14:35:25;;;;;;;1.23;0.65;;;;;;;;;;12988319;22;20258;-84
2022/12/27 14:40:56;;;;;;;3.90;1.30;;;;;;;;;;13007459;22;20364;-83
2022/12/27 14:46:37;;;;;;;2.17;1.25;;;;;;;;;;13036646;22;20027;-84
2022/12/27 14:52:25;;;;;;;1.17;0.57;;;;;;;;;;13006917;22;20094;-85
2022/12/27 14:57:36;;;;;;;3.95;0.82;;;;;;;;;;12996876;22;20630;-86
2022/12/27 15:02:59;;;;;;;3.05;1.10;;;;;;;;;;13021650;22;20046;-86
2022/12/27 15:08:35;;;;;;;2.78;1.02;;;;;;;;;;12991707;22;20019;-87
2022/12/27 15:13:52;;;;;;;2.63;1.10;;;;;;;;;;13012553;22;20042;-85
2022/12/27 15:19:16;;;;;;;2.47;1.08;;;;;;;;;;13031319;22;20015;-83
2022/12/27 15:24:28;;;;;;;3.42;1.17;;;;;;;;;;13032186;22;20031;-81
2022/12/27 15:29:42;;;;;;;1.80;1.20;;;;;;;;;;12982692;22;20244;-81
2022/12/27 15:35:10;;;;;;;2.53;0.80;;;;;;;;;;13030444;22;20030;-84
2022/12/27 15:40:38;;;;;;;1.30;0.82;;;;;;;;;;13000406;22;20034;-81
2022/12/27 15:45:57;;;;;;;0.93;0.68;;;;;;;;;;12997878;22;20024;-84
2022/12/27 15:51:08;;;;;;;0.70;0.50;;;;;;;;;;13024586;22;20019;-87
2022/12/27 15:56:25;;;;;;;2.47;0.60;;;;;;;;;;12993964;22;20715;-82
2022/12/27 16:01:37;;;;;;;0.60;0.50;;;;;;;;;;12999401;22;20030;-82
2022/12/27 16:06:50;;;;;;;1.52;0.65;;;;;;;;;;12989215;22;20052;-85
2022/12/27 16:12:08;;;;;;;1.65;0.80;;;;;;;;;;13035183;22;20023;-84
2022/12/27 16:17:35;;;;;;;1.45;1.00;;;;;;;;;;12988529;22;20030;-84
2022/12/27 16:22:42;;;;;;;1.08;0.85;;;;;;;;;;12980973;22;20035;-84
2022/12/27 16:27:52;;;;;;;3.28;1.38;;;;;;;;;;12981917;22;20050;-84
2022/12/27 16:32:59;;;;;;;4.47;1.58;;;;;;;;;;12989350;22;20579;-83
2022/12/27 16:38:03;;;;;;;7.25;3.88;;;;;;;;;;12990700;22;20476;-85
2022/12/27 16:43:37;;;;;;;6.40;3.00;;;;;;;;;;12991685;22;20027;-84
2022/12/27 16:48:57;;;;;;;4.28;2.17;;;;;;;;;;13018860;22;20019;-84
2022/12/27 16:54:05;;;;;;;3.30;1.90;;;;;;;;;;13016153;22;20027;-86
2022/12/27 16:59:42;;;;;;;3.92;2.05;;;;;;;;;;12990840;22;20039;-86
2022/12/27 17:05:00;;;;;;;2.97;2.03;;;;;;;;;;12999231;22;20039;-81
2022/12/27 17:10:42;;;;;;;3.85;1.40;;;;;;;;;;13002283;22;20356;-82
2022/12/27 17:15:53;;;;;;;2.42;1.05;;;;;;;;;;12998920;22;20047;-83
2022/12/27 17:21:03;;;;;;;2.30;0.80;;;;;;;;;;12995055;22;20027;-82
2022/12/27 17:26:21;;;;;;;1.75;1.02;;;;;;;;;;13003821;22;20072;-82
2022/12/27 17:31:34;;;;;;;2.40;0.80;;;;;;;;;;13025415;22;20094;-82
2022/12/27 17:36:52;;;;;;;3.35;0.65;;;;;;;;;;12992376;22;20098;-82
2022/12/27 17:47:45;;;;;;;1.30;0.80;;;;;;;;;;12993355;22;20025;-82
2022/12/27 17:58:37;;;;;;;3.17;1.00;;;;;;;;;;12990246;22;20073;-82
2022/12/27 18:03:44;;;;;;;2.42;0.80;;;;;;;;;;12990945;22;20023;-82
2022/12/27 18:08:50;;;;;;;1.60;0.82;;;;;;;;;;13030431;22;20027;-84
2022/12/27 18:13:57;;;;;;;2.08;1.08;;;;;;;;;;12991343;22;20102;-84
2022/12/27 18:19:01;;;;;;;4.47;2.15;;;;;;;;;;12991900;22;20464;-84
2022/12/27 18:24:23;;;;;;;5.57;1.92;;;;;;;;;;12993130;22;20019;-85
2022/12/27 18:29:27;;;;;;;4.50;2.20;;;;;;;;;;12992611;22;20224;-85
2022/12/27 18:34:36;;;;;;;5.15;2.65;;;;;;;;;;13030728;22;20019;-86
2022/12/27 18:39:48;;;;;;;6.30;2.65;;;;;;;;;;12993572;22;20039;-85
2022/12/27 18:44:56;;;;;;;7.10;2.45;;;;;;;;;;12995182;22;20023;-85
2022/12/27 18:50:01;;;;;;;3.47;1.73;;;;;;;;;;12985148;22;20094;-85
2022/12/27 18:55:17;;;;;;;17.52;5.85;;;;;;;;;;12983887;22;20043;-84
2022/12/27 19:00:24;;;;;;;8.73;3.20;;;;;;;;;;13017447;22;20076;-86
2022/12/27 19:05:30;;;;;;;11.73;3.13;;;;;;;;;;12989149;22;20110;-84
2022/12/27 19:10:35;;;;;;;6.87;2.40;;;;;;;;;;13016690;22;20535;-84
2022/12/27 19:15:43;;;;;;;4.83;1.63;;;;;;;;;;12992688;22;20042;-87
2022/12/27 19:20:53;;;;;;;6.25;2.17;;;;;;;;;;12987707;22;20027;-86
2022/12/27 19:26:05;;;;;;;3.00;1.60;;;;;;;;;;12992998;22;20045;-82
2022/12/27 19:31:18;;;;;;;2.85;1.70;;;;;;;;;;12999466;22;20026;-82
2022/12/27 19:36:26;;;;;;;4.00;1.75;;;;;;;;;;12997014;22;20053;-82
2022/12/27 19:41:31;;;;;;;1.85;1.40;;;;;;;;;;12995653;22;20053;-84
2022/12/27 19:46:34;;;;;;;5.38;1.80;;;;;;;;;;12989050;22;20027;-82
2022/12/27 19:51:39;;;;;;;3.67;1.60;;;;;;;;;;12989852;22;20026;-82
2022/12/27 19:56:45;;;;;;;2.85;1.33;;;;;;;;;;12991821;22;20049;-82
2022/12/27 20:01:53;;;;;;;3.47;1.42;;;;;;;;;;12998589;22;20065;-82
2022/12/27 20:06:57;;;;;;;6.82;3.03;;;;;;;;;;12994439;22;20034;-84
2022/12/27 20:12:02;;;;;;;7.35;4.40;;;;;;;;;;12985502;22;20030;-83
2022/12/27 20:17:06;;;;;;;8.57;4.32;;;;;;;;;;12985183;22;20607;-82
2022/12/27 20:22:10;;;;;;;7.47;3.55;;;;;;;;;;13011083;22;20038;-85
2022/12/27 20:27:15;;;;;;;6.57;3.58;;;;;;;;;;13015420;22;20023;-82
2022/12/27 20:32:19;;;;;;;6.45;3.40;;;;;;;;;;13015204;22;20031;-85
2022/12/27 20:37:23;;;;;;;6.55;2.88;;;;;;;;;;12985536;22;20019;-82
2022/12/27 20:42:28;;;;;;;4.72;2.50;;;;;;;;;;13031584;22;20038;-83
2022/12/27 20:47:32;;;;;;;4.57;1.75;;;;;;;;;;12982363;22;20075;-82
2022/12/27 20:52:37;;;;;;;2.90;2.08;;;;;;;;;;12985406;22;20046;-84
2022/12/27 20:57:42;;;;;;;2.28;1.60;;;;;;;;;;12988708;22;20051;-82
2022/12/27 21:02:46;;;;;;;3.70;1.55;;;;;;;;;;12995734;22;20047;-83
2022/12/27 21:07:50;;;;;;;2.60;1.50;;;;;;;;;;12998982;22;20031;-83
2022/12/27 21:12:55;;;;;;;3.00;1.45;;;;;;;;;;13002065;22;20353;-82
2022/12/27 21:17:59;;;;;;;2.85;1.83;;;;;;;;;;12999838;22;20046;-84
2022/12/27 21:23:02;;;;;;;2.60;1.55;;;;;;;;;;12995681;22;20020;-86
2022/12/27 21:28:08;;;;;;;4.80;2.90;;;;;;;;;;13018933;22;20069;-85
2022/12/27 21:33:11;;;;;;;3.50;2.10;;;;;;;;;;12995701;22;20019;-85
2022/12/27 21:38:14;;;;;;;4.10;1.80;;;;;;;;;;12994852;22;20027;-85
2022/12/27 21:43:19;;;;;;;6.30;2.20;;;;;;;;;;12992644;22;20687;-86
2022/12/27 21:48:23;;;;;;;4.13;1.80;;;;;;;;;;12993198;22;20413;-86
2022/12/27 21:53:27;;;;;;;3.60;1.80;;;;;;;;;;12996592;22;20027;-84
2022/12/27 21:58:32;;;;;;;5.30;1.77;;;;;;;;;;12993823;22;20038;-86
2022/12/27 22:03:41;;;;;;;3.60;1.63;;;;;;;;;;13008292;22;20027;-82
2022/12/27 22:08:46;;;;;;;2.83;1.23;;;;;;;;;;13005326;22;20039;-82
2022/12/27 22:13:52;;;;;;;4.50;1.95;;;;;;;;;;13001579;22;20393;-82
2022/12/27 22:18:56;;;;;;;3.42;1.60;;;;;;;;;;13025696;22;20034;-82
2022/12/27 22:24:01;;;;;;;3.00;1.42;;;;;;;;;;12999954;22;20098;-82
2022/12/27 22:29:07;;;;;;;3.53;1.73;;;;;;;;;;13002404;22;20023;-82
2022/12/27 22:34:11;;;;;;;3.47;1.67;;;;;;;;;;13025525;22;20019;-84
2022/12/27 22:39:15;;;;;;;2.22;1.63;;;;;;;;;;12991420;22;20574;-84
2022/12/27 22:44:25;;;;;;;2.92;1.90;;;;;;;;;;12994086;22;20317;-82
2022/12/27 22:49:30;;;;;;;6.85;2.40;;;;;;;;;;13029962;22;20031;-80
2022/12/27 22:54:37;;;;;;;6.28;2.30;;;;;;;;;;12993443;22;20098;-82
2022/12/27 22:59:47;;;;;;;3.03;1.65;;;;;;;;;;12991584;22;20027;-82
2022/12/27 23:04:51;;;;;;;4.30;1.30;;;;;;;;;;12991839;22;20023;-84
2022/12/27 23:09:55;;;;;;;3.00;1.50;;;;;;;;;;12994171;22;20027;-82
2022/12/27 23:15:00;;;;;;;3.03;1.58;;;;;;;;;;13016686;22;20023;-84
2022/12/27 23:20:05;;;;;;;2.28;1.02;;;;;;;;;;12989502;22;20019;-82
2022/12/27 23:25:09;;;;;;;2.22;1.17;;;;;;;;;;12995776;22;20574;-82
2022/12/27 23:30:15;;;;;;;4.35;1.63;;;;;;;;;;12996033;22;20023;-82
2022/12/27 23:35:19;;;;;;;2.13;1.27;;;;;;;;;;12999924;22;20027;-82
2022/12/27 23:40:22;;;;;;;2.33;1.10;;;;;;;;;;12996401;22;20019;-82
2022/12/27 23:45:27;;;;;;;1.67;1.08;;;;;;;;;;13030244;22;20103;-82
2022/12/27 23:50:30;;;;;;;1.67;1.10;;;;;;;;;;12997638;22;20626;-86
2022/12/27 23:55:34;;;;;;;2.20;1.13;;;;;;;;;;13019925;22;20250;-84
